createdAt,value
2022-12-19T00:02:12.744Z,22.73
2022-12-19T00:04:39.686Z,20.52
2022-12-19T00:07:07.834Z,20.92
2022-12-19T00:09:35.805Z,17.98
2022-12-19T00:12:04.003Z,21.98
2022-12-19T00:14:32.030Z,17.85
2022-12-19T00:19:55.793Z,22.95
2022-12-19T00:22:28.784Z,17.88
2022-12-19T00:25:20.363Z,18.45
2022-12-19T00:27:47.682Z,14.95
2022-12-19T00:30:19.921Z,25.00
2022-12-19T00:32:47.689Z,20.52
2022-12-19T00:35:15.925Z,24.10
2022-12-19T00:37:45.472Z,19.95
2022-12-19T00:40:41.690Z,17.10
2022-12-19T00:43:09.695Z,17.75
2022-12-19T00:45:38.371Z,17.15
2022-12-19T00:48:05.966Z,23.05
2022-12-19T00:50:35.742Z,18.35
2022-12-19T00:56:37.831Z,23.08
2022-12-19T00:59:12.853Z,21.73
2022-12-19T01:01:41.526Z,24.40
2022-12-19T01:04:30.349Z,21.25
2022-12-19T01:07:02.174Z,21.05
2022-12-19T01:09:36.943Z,22.10
2022-12-19T01:15:23.672Z,22.17
2022-12-19T01:17:51.836Z,21.52
2022-12-19T01:20:49.215Z,18.75
2022-12-19T01:23:17.721Z,22.38
2022-12-19T01:25:52.411Z,14.27
2022-12-19T01:28:45.852Z,19.90
2022-12-19T01:31:14.010Z,20.05
2022-12-19T01:33:43.921Z,24.45
2022-12-19T01:36:13.733Z,24.30
2022-12-19T01:38:41.974Z,17.80
2022-12-19T01:44:07.995Z,17.90
2022-12-19T01:46:40.942Z,17.38
2022-12-19T01:49:15.859Z,30.75
2022-12-19T01:51:47.976Z,28.15
2022-12-19T01:54:22.435Z,21.58
2022-12-19T01:56:58.810Z,20.35
2022-12-19T01:59:52.499Z,25.65
2022-12-19T02:02:30.992Z,21.20
2022-12-19T02:05:01.611Z,17.27
2022-12-19T02:07:30.919Z,23.45
2022-12-19T02:10:00.070Z,20.45
2022-12-19T02:12:44.686Z,25.15
2022-12-19T02:15:18.744Z,21.73
2022-12-19T02:18:18.771Z,16.95
2022-12-19T02:20:56.663Z,17.70
2022-12-19T02:23:51.507Z,20.75
2022-12-19T02:30:04.552Z,18.27
2022-12-19T02:32:48.003Z,20.50
2022-12-19T02:35:40.580Z,20.33
2022-12-19T02:38:25.981Z,22.80
2022-12-19T02:46:57.584Z,14.85
2022-12-19T02:49:31.023Z,18.52
2022-12-19T02:52:37.772Z,13.95
2022-12-19T02:55:16.782Z,15.50
2022-12-19T02:57:51.680Z,18.58
2022-12-19T03:00:25.771Z,20.92
2022-12-19T03:03:26.106Z,19.27
2022-12-19T03:05:58.676Z,15.80
2022-12-19T03:08:36.439Z,20.77
2022-12-19T03:11:13.385Z,20.42
2022-12-19T03:14:05.639Z,22.77
2022-12-19T03:16:37.575Z,28.58
2022-12-19T03:19:13.018Z,14.63
2022-12-19T03:21:43.562Z,17.60
2022-12-19T03:24:13.764Z,15.40
2022-12-19T03:26:48.962Z,15.20
2022-12-19T03:29:29.157Z,17.65
2022-12-19T03:32:01.396Z,18.27
2022-12-19T03:34:40.328Z,16.40
2022-12-19T03:37:14.773Z,21.92
2022-12-19T03:39:55.954Z,18.85
2022-12-19T03:42:44.262Z,15.57
2022-12-19T03:45:16.810Z,17.75
2022-12-19T03:48:03.736Z,18.48
2022-12-19T03:53:47.034Z,19.33
2022-12-19T03:59:44.727Z,24.00
2022-12-19T04:02:15.072Z,17.75
2022-12-19T04:04:46.665Z,17.90
2022-12-19T04:07:20.695Z,20.05
2022-12-19T04:09:49.197Z,19.38
2022-12-19T04:12:55.584Z,17.33
2022-12-19T04:16:30.808Z,15.05
2022-12-19T04:19:19.616Z,17.35
2022-12-19T04:22:05.843Z,18.00
2022-12-19T04:24:37.529Z,22.05
2022-12-19T04:27:08.355Z,16.33
2022-12-19T04:29:37.969Z,18.30
2022-12-19T04:32:08.389Z,19.48
2022-12-19T04:37:53.767Z,17.73
2022-12-19T04:40:21.813Z,19.30
2022-12-19T04:42:49.745Z,18.67
2022-12-19T04:48:12.101Z,18.17
2022-12-19T04:50:41.357Z,21.33
2022-12-19T04:53:10.092Z,19.23
2022-12-19T04:55:41.068Z,20.02
2022-12-19T04:58:18.959Z,16.75
2022-12-19T05:01:19.352Z,23.17
2022-12-19T05:03:55.765Z,16.52
2022-12-19T05:06:25.730Z,20.35
2022-12-19T05:08:53.739Z,22.80
2022-12-19T05:11:21.759Z,18.25
2022-12-19T05:14:15.901Z,20.48
2022-12-19T05:16:43.718Z,21.42
2022-12-19T05:19:36.256Z,21.88
2022-12-19T05:22:04.104Z,17.17
2022-12-19T05:24:31.792Z,20.98
2022-12-19T05:26:59.700Z,23.90
2022-12-19T05:29:27.706Z,19.30
2022-12-19T05:31:55.701Z,23.88
2022-12-19T05:34:24.710Z,19.58
2022-12-19T05:36:56.779Z,16.65
2022-12-19T05:39:23.731Z,17.92
2022-12-19T05:41:51.699Z,20.30
2022-12-19T05:44:24.757Z,16.40
2022-12-19T05:52:39.958Z,17.48
2022-12-19T05:55:13.551Z,18.33
2022-12-19T05:57:41.690Z,16.95
2022-12-19T06:00:10.261Z,14.52
2022-12-19T06:02:40.132Z,18.80
2022-12-19T06:05:13.962Z,24.27
2022-12-19T06:07:41.699Z,17.75
2022-12-19T06:10:10.488Z,14.82
2022-12-19T06:12:37.769Z,21.13
2022-12-19T06:15:06.257Z,19.80
2022-12-19T06:20:31.715Z,18.15
2022-12-19T06:22:59.717Z,19.85
2022-12-19T06:25:27.865Z,18.80
2022-12-19T06:27:55.707Z,18.23
2022-12-19T06:30:23.695Z,19.35
2022-12-19T06:32:51.733Z,19.40
2022-12-19T06:35:23.707Z,20.20
2022-12-19T06:37:52.942Z,16.80
2022-12-19T06:40:42.697Z,25.48
2022-12-19T06:43:09.717Z,16.52
2022-12-19T06:45:41.742Z,17.83
2022-12-19T06:48:09.744Z,17.85
2022-12-19T06:50:42.730Z,22.92
2022-12-19T06:53:14.776Z,20.63
2022-12-19T06:55:45.812Z,19.75
2022-12-19T06:58:23.979Z,20.50
2022-12-19T07:00:53.325Z,20.63
2022-12-19T07:03:34.938Z,18.73
2022-12-19T07:06:02.578Z,13.27
2022-12-19T07:08:35.758Z,18.17
2022-12-19T07:11:27.711Z,20.95
2022-12-19T07:13:55.713Z,15.93
2022-12-19T07:16:25.565Z,23.13
2022-12-19T07:19:18.328Z,19.02
2022-12-19T07:21:50.837Z,21.58
2022-12-19T07:24:17.891Z,19.73
2022-12-19T07:26:45.923Z,17.50
2022-12-19T07:29:14.233Z,21.02
2022-12-19T07:31:46.876Z,17.55
2022-12-19T07:34:13.724Z,20.80
2022-12-19T07:39:38.746Z,16.80
2022-12-19T07:42:07.261Z,19.45
2022-12-19T07:44:41.016Z,17.48
2022-12-19T07:47:11.498Z,17.67
2022-12-19T07:55:23.948Z,17.33
2022-12-19T07:57:51.799Z,23.38
2022-12-19T08:00:24.848Z,20.42
2022-12-19T08:02:51.894Z,23.20
2022-12-19T08:05:23.701Z,15.23
2022-12-19T08:07:55.722Z,15.77
2022-12-19T08:10:27.790Z,17.60
2022-12-19T08:13:00.746Z,21.65
2022-12-19T08:15:27.707Z,16.70
2022-12-19T08:17:59.870Z,15.35
2022-12-19T08:26:47.555Z,19.52
2022-12-19T08:29:24.903Z,18.02
2022-12-19T08:32:21.223Z,17.17
2022-12-19T08:37:41.776Z,20.42
2022-12-19T08:40:10.115Z,15.65
2022-12-19T08:42:42.757Z,20.33
2022-12-19T08:45:09.875Z,22.98
2022-12-19T08:47:37.741Z,16.90
2022-12-19T08:50:06.119Z,19.70
2022-12-19T08:52:38.714Z,19.23
2022-12-19T08:55:06.255Z,16.10
2022-12-19T08:57:33.769Z,17.90
2022-12-19T09:00:02.700Z,18.95
2022-12-19T09:02:31.919Z,18.73
2022-12-19T09:05:58.414Z,14.50
2022-12-19T09:07:47.708Z,21.20
2022-12-19T09:10:15.780Z,17.65
2022-12-19T09:12:43.721Z,21.08
2022-12-19T09:15:11.889Z,21.85
2022-12-19T09:17:39.919Z,22.95
2022-12-19T09:20:08.270Z,19.25
2022-12-19T09:22:35.803Z,19.13
2022-12-19T09:25:03.983Z,19.38
2022-12-19T09:28:26.280Z,20.63
2022-12-19T09:31:02.600Z,23.85
2022-12-19T09:33:33.048Z,20.08
2022-12-19T09:36:11.670Z,20.83
2022-12-19T09:38:39.800Z,20.38
2022-12-19T09:41:16.901Z,18.42
2022-12-19T09:44:11.910Z,21.02
2022-12-19T09:46:59.538Z,17.20
2022-12-19T09:49:41.982Z,23.25
2022-12-19T09:52:36.157Z,18.27
2022-12-19T09:55:13.716Z,21.45
2022-12-19T09:57:47.554Z,22.30
2022-12-19T10:00:21.162Z,22.10
2022-12-19T10:03:24.000Z,21.33
2022-12-19T10:06:59.949Z,21.67
2022-12-19T10:10:03.987Z,16.45
2022-12-19T10:12:46.214Z,24.60
2022-12-19T10:15:12.554Z,19.45
2022-12-19T10:21:13.006Z,17.55
2022-12-19T10:24:00.935Z,20.00
2022-12-19T10:26:48.951Z,15.50
2022-12-19T10:29:29.659Z,18.95
2022-12-19T10:32:14.518Z,19.92
2022-12-19T10:34:44.144Z,19.67
2022-12-19T10:40:34.643Z,16.92
2022-12-19T10:43:18.237Z,18.40
2022-12-19T10:46:30.207Z,17.95
2022-12-19T10:48:57.725Z,18.70
2022-12-19T10:54:48.830Z,18.40
2022-12-19T10:57:21.683Z,15.18
2022-12-19T11:00:15.469Z,20.08
2022-12-19T11:02:47.071Z,19.98
2022-12-19T11:05:26.470Z,19.58
2022-12-19T11:13:25.840Z,18.55
2022-12-19T11:19:23.552Z,17.55
2022-12-19T11:23:49.077Z,22.38
2022-12-19T11:29:19.482Z,16.90
2022-12-19T11:29:37.372Z,22.05
2022-12-19T11:30:44.126Z,17.55
2022-12-19T11:30:45.502Z,16.95
2022-12-19T11:34:35.635Z,21.00
2022-12-19T11:37:20.979Z,18.33
2022-12-19T11:39:52.911Z,18.38
2022-12-19T11:42:28.284Z,19.02
2022-12-19T11:45:41.716Z,23.80
2022-12-19T11:48:38.688Z,17.45
2022-12-19T11:51:36.361Z,17.75
2022-12-19T11:54:32.328Z,21.90
2022-12-19T11:57:26.635Z,28.42
2022-12-19T11:59:56.452Z,17.40
2022-12-19T12:02:52.290Z,14.13
2022-12-19T12:05:30.278Z,18.25
2022-12-19T12:10:10.249Z,14.50
2022-12-19T12:15:42.253Z,19.40
2022-12-19T12:21:31.537Z,17.35
2022-12-19T12:31:27.785Z,19.55
2022-12-19T12:31:44.955Z,16.80
2022-12-19T12:31:51.726Z,17.20
2022-12-19T12:31:52.738Z,18.50
2022-12-19T12:35:52.122Z,20.27
2022-12-19T12:41:00.529Z,20.00
2022-12-19T12:44:11.530Z,21.30
2022-12-19T12:46:51.200Z,22.38
2022-12-19T12:49:42.607Z,21.55
2022-12-19T12:52:41.138Z,21.27
2022-12-19T12:55:42.347Z,27.65
2022-12-19T12:59:02.117Z,17.92
2022-12-19T13:01:45.857Z,21.23
2022-12-19T13:04:13.670Z,15.60
2022-12-19T13:07:03.506Z,18.63
2022-12-19T13:09:36.559Z,19.27
2022-12-19T13:12:42.843Z,20.88
2022-12-19T13:15:39.506Z,19.45
2022-12-19T13:18:09.664Z,16.83
2022-12-19T13:21:09.693Z,19.27
2022-12-19T13:23:37.693Z,18.13
2022-12-19T13:26:20.652Z,20.70
2022-12-19T13:28:52.756Z,23.27
2022-12-19T13:31:22.867Z,19.30
2022-12-19T13:33:51.846Z,24.70
2022-12-19T13:40:02.200Z,21.65
2022-12-19T13:40:08.923Z,18.92
2022-12-19T13:43:10.576Z,24.23
2022-12-19T13:45:41.818Z,22.15
2022-12-19T13:48:25.655Z,23.52
2022-12-19T13:53:59.301Z,23.33
2022-12-19T13:56:30.442Z,26.15
2022-12-19T13:59:04.223Z,24.80
2022-12-19T14:06:17.831Z,23.65
2022-12-19T14:08:22.984Z,22.65
2022-12-19T14:11:39.910Z,21.27
2022-12-19T14:14:12.796Z,20.92
2022-12-19T14:16:50.296Z,27.15
2022-12-19T14:19:23.591Z,24.15
2022-12-19T14:28:15.196Z,21.83
2022-12-19T14:28:25.550Z,24.42
2022-12-19T14:31:02.215Z,23.95
2022-12-19T14:34:04.341Z,27.88
2022-12-19T14:36:57.998Z,28.17
2022-12-19T14:39:31.335Z,24.73
2022-12-19T14:43:58.048Z,31.20
2022-12-19T14:54:07.518Z,30.95
2022-12-19T14:54:10.031Z,25.60
2022-12-19T14:54:21.295Z,28.20
2022-12-19T14:56:00.427Z,24.70
2022-12-19T14:58:56.286Z,29.88
2022-12-19T15:01:32.428Z,49.33
2022-12-19T15:04:47.856Z,47.20
2022-12-19T15:07:09.922Z,40.65
2022-12-19T15:11:05.009Z,40.95
2022-12-19T15:14:55.121Z,38.75
2022-12-19T15:16:25.730Z,33.42
2022-12-19T15:19:17.753Z,34.15
2022-12-19T15:21:46.107Z,34.75
2022-12-19T15:27:05.736Z,35.92
2022-12-19T15:29:34.223Z,36.67
2022-12-19T15:32:02.032Z,36.60
2022-12-19T15:34:38.025Z,44.00
2022-12-19T15:37:12.404Z,31.48
2022-12-19T15:39:40.871Z,37.30
2022-12-19T15:42:18.655Z,36.20
2022-12-19T15:44:47.672Z,37.78
2022-12-19T15:47:19.809Z,39.78
2022-12-19T15:49:52.807Z,35.47
2022-12-19T15:52:26.268Z,34.42
2022-12-19T15:54:56.608Z,38.13
2022-12-19T15:57:37.330Z,32.85
2022-12-19T16:00:19.142Z,36.00
2022-12-19T16:05:46.212Z,40.42
2022-12-19T16:08:39.959Z,37.58
2022-12-19T16:11:18.504Z,44.60
2022-12-19T16:13:56.721Z,51.08
2022-12-19T16:16:23.806Z,40.03
2022-12-19T16:18:51.738Z,49.72
2022-12-19T16:21:31.263Z,48.80
2022-12-19T16:24:06.073Z,43.65
2022-12-19T16:26:37.621Z,47.30
2022-12-19T16:29:18.137Z,32.97
2022-12-19T16:31:45.794Z,35.85
2022-12-19T16:34:16.436Z,43.00
2022-12-19T16:36:50.136Z,44.40
2022-12-19T16:39:43.970Z,36.15
2022-12-19T16:42:17.011Z,50.05
2022-12-19T16:44:47.003Z,50.85
2022-12-19T16:47:19.804Z,53.42
2022-12-19T16:49:52.767Z,55.38
2022-12-19T16:52:19.809Z,51.83
2022-12-19T16:54:47.852Z,55.53
2022-12-19T16:57:21.453Z,43.85
2022-12-19T16:59:50.746Z,46.35
2022-12-19T17:02:50.404Z,52.83
2022-12-19T17:05:30.193Z,48.75
2022-12-19T17:07:58.616Z,48.55
2022-12-19T17:10:33.806Z,50.08
2022-12-19T17:13:08.277Z,41.42
2022-12-19T17:15:38.681Z,53.75
2022-12-19T17:18:20.218Z,48.13
2022-12-19T17:20:52.824Z,47.65
2022-12-19T17:23:22.143Z,47.50
2022-12-19T17:25:50.453Z,48.38
2022-12-19T17:28:18.066Z,39.47
2022-12-19T17:30:57.368Z,41.15
2022-12-19T17:33:50.156Z,46.55
2022-12-19T17:36:23.040Z,54.42
2022-12-19T17:38:51.869Z,37.35
2022-12-19T17:41:45.220Z,42.95
2022-12-19T17:44:13.824Z,51.10
2022-12-19T17:47:05.755Z,39.75
2022-12-19T17:49:33.897Z,38.75
2022-12-19T17:52:01.753Z,40.83
2022-12-19T17:54:30.580Z,45.90
2022-12-19T17:57:22.554Z,42.45
2022-12-19T17:59:49.766Z,42.20
2022-12-19T18:02:24.023Z,54.85
2022-12-19T18:04:52.609Z,53.97
2022-12-19T18:07:19.894Z,48.63
2022-12-19T18:09:47.751Z,48.10
2022-12-19T18:12:15.961Z,53.90
2022-12-19T18:14:43.728Z,45.22
2022-12-19T18:17:13.616Z,40.75
2022-12-19T18:19:46.764Z,48.92
2022-12-19T18:22:39.696Z,44.70
2022-12-19T18:25:19.923Z,45.45
2022-12-19T18:27:52.594Z,42.55
2022-12-19T18:30:26.891Z,46.97
2022-12-19T18:32:57.453Z,48.25
2022-12-19T18:35:36.344Z,41.88
2022-12-19T18:38:27.733Z,39.53
2022-12-19T18:40:55.737Z,48.10
2022-12-19T18:43:23.933Z,33.97
2022-12-19T18:45:55.839Z,36.47
2022-12-19T18:48:26.829Z,44.88
2022-12-19T18:50:55.244Z,35.42
2022-12-19T18:53:32.796Z,36.22
2022-12-19T18:56:02.696Z,41.58
2022-12-19T18:58:29.869Z,39.67
2022-12-19T19:00:59.791Z,45.30
2022-12-19T19:03:31.256Z,47.53
2022-12-19T19:06:00.361Z,40.85
2022-12-19T19:08:30.507Z,40.15
2022-12-19T19:14:17.870Z,43.25
2022-12-19T19:16:49.822Z,37.35
2022-12-19T19:19:23.710Z,38.88
2022-12-19T19:21:51.764Z,38.58
2022-12-19T19:24:22.344Z,40.50
2022-12-19T19:26:55.790Z,47.30
2022-12-19T19:29:23.968Z,36.45
2022-12-19T19:31:52.888Z,42.88
2022-12-19T19:34:31.003Z,43.28
2022-12-19T19:37:02.202Z,39.38
2022-12-19T19:39:37.866Z,37.17
2022-12-19T19:42:06.018Z,41.03
2022-12-19T19:44:33.974Z,39.33
2022-12-19T19:47:05.721Z,37.85
2022-12-19T19:49:59.448Z,40.55
2022-12-19T19:52:27.804Z,35.63
2022-12-19T19:55:19.883Z,36.53
2022-12-19T19:57:48.022Z,38.30
2022-12-19T20:00:22.403Z,33.10
2022-12-19T20:03:20.502Z,40.25
2022-12-19T20:05:50.255Z,31.05
2022-12-19T20:08:17.755Z,38.05
2022-12-19T20:10:45.730Z,34.08
2022-12-19T20:13:18.728Z,36.33
2022-12-19T20:15:49.766Z,31.48
2022-12-19T20:18:18.297Z,34.50
2022-12-19T20:20:47.690Z,30.40
2022-12-19T20:23:19.741Z,32.38
2022-12-19T20:25:47.786Z,24.05
2022-12-19T20:28:17.780Z,35.00
2022-12-19T20:30:45.828Z,29.67
2022-12-19T20:33:13.781Z,52.03
2022-12-19T20:35:42.946Z,37.65
2022-12-19T20:38:10.100Z,25.58
2022-12-19T20:40:37.715Z,29.42
2022-12-19T20:43:06.133Z,32.95
2022-12-19T20:45:34.376Z,26.98
2022-12-19T20:48:07.142Z,29.70
2022-12-19T20:50:41.233Z,29.33
2022-12-19T20:53:09.876Z,26.88
2022-12-19T20:58:32.146Z,29.05
2022-12-19T21:01:09.280Z,26.15
2022-12-19T21:03:38.499Z,29.48
2022-12-19T21:06:07.245Z,27.50
2022-12-19T21:08:40.059Z,23.38
2022-12-19T21:11:14.246Z,24.63
2022-12-19T21:13:42.203Z,32.88
2022-12-19T21:16:13.526Z,35.53
2022-12-19T21:18:43.348Z,26.70
2022-12-19T21:21:17.991Z,21.33
2022-12-19T21:23:46.659Z,26.50
2022-12-19T21:26:13.867Z,29.52
2022-12-19T21:28:41.991Z,23.25
2022-12-19T21:31:24.710Z,26.08
2022-12-19T21:33:54.823Z,25.38
2022-12-19T21:39:39.871Z,21.98
2022-12-19T21:42:07.928Z,18.88
2022-12-19T21:44:40.848Z,24.23
2022-12-19T21:47:07.796Z,23.90
2022-12-19T21:49:35.692Z,22.63
2022-12-19T21:52:03.875Z,20.00
2022-12-19T21:54:32.052Z,21.52
2022-12-19T21:57:05.109Z,19.80
2022-12-19T21:59:31.783Z,23.90
2022-12-19T22:02:00.070Z,28.80
2022-12-19T22:04:27.861Z,24.40
2022-12-19T22:06:55.910Z,18.02
2022-12-19T22:09:28.830Z,22.75
2022-12-19T22:17:39.685Z,19.90
2022-12-19T22:20:45.421Z,21.67
2022-12-19T22:23:13.869Z,25.08
2022-12-19T22:25:41.718Z,21.45
2022-12-19T22:28:09.728Z,24.42
2022-12-19T22:33:29.962Z,24.25
2022-12-19T22:36:05.556Z,19.30
2022-12-19T22:38:33.743Z,23.27
2022-12-19T22:41:05.594Z,20.92
2022-12-19T22:43:40.403Z,21.55
2022-12-19T22:46:18.018Z,25.42
2022-12-19T22:48:47.137Z,21.58
2022-12-19T22:51:15.004Z,26.40
2022-12-19T22:53:42.456Z,21.95
2022-12-19T22:56:15.552Z,25.35
2022-12-19T22:58:46.183Z,27.20
2022-12-19T23:01:25.840Z,24.50
2022-12-19T23:03:56.327Z,24.50
2022-12-19T23:06:26.268Z,20.40
2022-12-19T23:09:18.767Z,26.05
2022-12-19T23:11:48.931Z,17.80
2022-12-19T23:14:17.859Z,24.77
2022-12-19T23:16:46.316Z,22.63
2022-12-19T23:19:18.010Z,23.73
2022-12-19T23:21:51.796Z,17.48
2022-12-19T23:24:19.828Z,26.90
2022-12-19T23:29:39.686Z,22.67
2022-12-19T23:32:32.081Z,21.45
2022-12-19T23:34:59.886Z,26.08
2022-12-19T23:40:19.813Z,16.98
2022-12-19T23:43:12.780Z,22.42
2022-12-19T23:45:43.499Z,20.42
2022-12-19T23:48:18.828Z,23.20
2022-12-19T23:50:57.274Z,21.05
2022-12-19T23:53:25.902Z,23.75
2022-12-19T23:56:23.604Z,19.75
2022-12-19T23:58:57.677Z,22.77
